»·PEaware :: N9229P KBUR-KLAS

N9229P :: KBUR-KLAS

FLIGHT INFORMATION

Flight Status: Arrived
Operator: Privately registered:
United States
More flights under this callsign
Pilot: James W. (24810)
Aircraft: PIPER PA-24 COMMANCHE
(PA24)
More flights by this aircraft type
Origin: KBUR Bob Hope-Burbank
United States
Destination: KLAS McCarran Intl
United States
More flights between these airports :: More routes between these airports
Route: VNY3 DAG CRESO4
File this flight plan on PilotEdge
Remarks:
Altitude:
(Current/Filed)
11,000ft
Speed:
(Current/Filed)
175kts
Departed: 03-Jan-21 04:50 PM
Arrived: 03-Jan-21 06:10 PM
Distance/Time
Traveled:
193nm/1:20
Distance/Time
To Go:
Arrived

Flight Plot

Page will automatically refresh every two minutes.

Flight plan parsing failed; only flown route is shown


Map Options




Map Legend


Flown Route
Filed Route
Departure Airport
Arrival Airport
Navaid (VOR, NDB)
Fix

Horizontal Profiles

Position Reports

Time Latitude Longitude Heading Altitude Ground
Speed
03-Jan-21 16:32 34.202179 -118.359523 254 734ft 0kts
03-Jan-21 16:33 34.202179 -118.359523 254 734ft 0kts
03-Jan-21 16:34 34.202179 -118.359523 254 734ft 0kts
03-Jan-21 16:35 34.202179 -118.359523 254 734ft 0kts
03-Jan-21 16:36 34.202179 -118.359523 254 734ft 0kts
03-Jan-21 16:37 34.202179 -118.359523 254 734ft 0kts
03-Jan-21 16:38 34.202179 -118.359523 254 734ft 0kts
03-Jan-21 16:39 34.202179 -118.359523 254 734ft 0kts
03-Jan-21 16:40 34.202179 -118.359523 254 734ft 0kts
03-Jan-21 16:41 34.202179 -118.359523 254 734ft 0kts
03-Jan-21 16:42 34.202179 -118.359523 254 734ft 0kts
03-Jan-21 16:43 34.203379 -118.359128 347 738ft 13kts
03-Jan-21 16:44 34.203379 -118.359128 347 738ft 13kts
03-Jan-21 16:45 34.206158 -118.359910 346 751ft 19kts
03-Jan-21 16:46 34.210815 -118.361202 346 773ft 12kts
03-Jan-21 16:47 34.211555 -118.361252 37 775ft 0kts
03-Jan-21 16:48 34.211557 -118.361250 36 775ft 0kts
03-Jan-21 16:49 34.197325 -118.356160 170 1283ft 105kts
03-Jan-21 16:50 34.170625 -118.382835 226 2318ft 140kts
03-Jan-21 16:51 34.144553 -118.417091 225 3508ft 136kts
03-Jan-21 16:52 34.119418 -118.449184 225 4692ft 127kts
03-Jan-21 16:53 34.130218 -118.482434 316 5860ft 142kts
03-Jan-21 16:54 34.162520 -118.508320 317 7036ft 137kts
03-Jan-21 16:55 34.194001 -118.531543 316 8207ft 129kts
03-Jan-21 16:56 34.223468 -118.553227 313 9370ft 120kts
03-Jan-21 16:57 34.253664 -118.575672 315 10246ft 133kts
03-Jan-21 16:59 34.285722 -118.599250 315 10959ft 141kts
03-Jan-21 17:00 34.324286 -118.580543 53 10987ft 211kts
03-Jan-21 17:01 34.357678 -118.521355 50 10986ft 214kts
03-Jan-21 17:02 34.392738 -118.463006 50 10986ft 214kts
03-Jan-21 17:03 34.428013 -118.404333 50 10987ft 216kts
03-Jan-21 17:04 34.463303 -118.345520 50 10987ft 216kts
03-Jan-21 17:05 34.498734 -118.286372 50 10988ft 216kts
03-Jan-21 17:06 34.534095 -118.227248 50 10989ft 216kts
03-Jan-21 17:07 34.569365 -118.168178 50 10989ft 216kts
03-Jan-21 17:08 34.604770 -118.108781 50 10990ft 217kts
03-Jan-21 17:09 34.633569 -118.045496 85 10992ft 218kts
03-Jan-21 17:10 34.641635 -117.972116 83 10991ft 219kts
03-Jan-21 17:10 34.648317 -117.911002 83 10991ft 219kts
03-Jan-21 17:11 34.656291 -117.837538 84 10992ft 219kts
03-Jan-21 17:13 34.667184 -117.751957 70 10967ft 220kts
03-Jan-21 17:14 34.685532 -117.680929 72 10966ft 220kts
03-Jan-21 17:15 34.703690 -117.610007 72 10966ft 220kts
03-Jan-21 17:15 34.718977 -117.550796 71 10967ft 220kts
03-Jan-21 17:17 34.740251 -117.467799 72 10968ft 220kts
03-Jan-21 17:18 34.758339 -117.396589 72 10968ft 220kts
03-Jan-21 17:18 34.773459 -117.336924 72 10963ft 220kts
03-Jan-21 17:19 34.791402 -117.265971 72 10962ft 219kts
03-Jan-21 17:20 34.809317 -117.194919 72 10962ft 219kts
03-Jan-21 17:21 34.827179 -117.123865 72 10963ft 219kts
03-Jan-21 17:22 34.845020 -117.052735 72 10963ft 219kts
03-Jan-21 17:23 34.862743 -116.981810 72 10964ft 219kts
03-Jan-21 17:24 34.880508 -116.910544 72 10965ft 220kts
03-Jan-21 17:25 34.898247 -116.839205 72 10965ft 220kts
03-Jan-21 17:26 34.915918 -116.767940 72 10966ft 220kts
03-Jan-21 17:27 34.933633 -116.696284 72 10966ft 220kts
03-Jan-21 17:28 34.951214 -116.624974 72 10967ft 220kts
03-Jan-21 17:29 34.972745 -116.555311 58 10968ft 219kts
03-Jan-21 17:30 35.001838 -116.489961 58 10967ft 219kts
03-Jan-21 17:31 35.030911 -116.424466 58 10969ft 219kts
03-Jan-21 17:32 35.059992 -116.358846 58 10969ft 219kts
03-Jan-21 17:33 35.089014 -116.293274 59 10962ft 218kts
03-Jan-21 17:34 35.117881 -116.227865 59 10960ft 218kts
03-Jan-21 17:35 35.146604 -116.162695 59 10961ft 218kts
03-Jan-21 17:36 35.175364 -116.097293 59 10961ft 218kts
03-Jan-21 17:37 35.204103 -116.031824 59 10962ft 218kts
03-Jan-21 17:38 35.232787 -115.966352 59 10962ft 218kts
03-Jan-21 17:39 35.261386 -115.900946 59 10963ft 218kts
03-Jan-21 17:40 35.290036 -115.835296 59 10963ft 218kts
03-Jan-21 17:41 35.321698 -115.772560 41 10964ft 215kts
03-Jan-21 17:42 35.362226 -115.718648 41 10965ft 215kts
03-Jan-21 17:43 35.402835 -115.664447 42 10965ft 215kts
03-Jan-21 17:44 35.443209 -115.610504 42 10966ft 215kts
03-Jan-21 17:45 35.483776 -115.556195 42 10966ft 215kts
03-Jan-21 17:46 35.525368 -115.500475 42 10568ft 226kts
03-Jan-21 17:47 35.568217 -115.442960 43 10045ft 229kts
03-Jan-21 17:48 35.609997 -115.386769 43 9967ft 218kts
03-Jan-21 17:49 35.650817 -115.331823 44 9835ft 221kts
03-Jan-21 17:50 35.693481 -115.274304 45 9129ft 231kts
03-Jan-21 17:51 35.736342 -115.216382 46 8571ft 226kts
03-Jan-21 17:52 35.779397 -115.160421 23 8053ft 222kts
03-Jan-21 17:53 35.837709 -115.141205 8 7574ft 216kts
03-Jan-21 17:54 35.896515 -115.126373 6 7080ft 215kts
03-Jan-21 17:55 35.952971 -115.112583 6 6962ft 186kts
03-Jan-21 17:56 35.997515 -115.099915 7 6962ft 150kts
03-Jan-21 17:57 36.036453 -115.087821 7 6964ft 140kts
03-Jan-21 17:58 36.073359 -115.076093 7 6964ft 134kts
03-Jan-21 17:59 36.109095 -115.064519 7 6872ft 137kts
03-Jan-21 18:00 36.147226 -115.053126 7 6183ft 141kts
03-Jan-21 18:01 36.184101 -115.048191 313 5573ft 122kts
03-Jan-21 18:02 36.195995 -115.079408 281 5460ft 91kts
03-Jan-21 18:03 36.201000 -115.107728 217 5463ft 78kts
03-Jan-21 18:04 36.177982 -115.111612 192 5175ft 97kts
03-Jan-21 18:05 36.155510 -115.121645 211 4490ft 83kts
03-Jan-21 18:06 36.135879 -115.136637 208 3777ft 81kts
03-Jan-21 18:07 36.114723 -115.148395 197 2791ft 87kts
03-Jan-21 18:08 36.094470 -115.159423 204 2103ft 61kts
03-Jan-21 18:09 36.089373 -115.163427 294 2126ft 0kts
03-Jan-21 18:10 36.087551 -115.165771 204 2139ft 21kts
03-Jan-21 18:11 36.081497 -115.169793 267 2164ft 14kts
03-Jan-21 18:12 36.081117 -115.170585 75 2166ft 0kts
03-Jan-21 18:13 36.081117 -115.170585 75 2166ft 0kts
03-Jan-21 18:14 36.081117 -115.170585 75 2166ft 0kts
03-Jan-21 18:15 36.081117 -115.170585 75 2166ft 0kts
03-Jan-21 18:16 36.081117 -115.170585 75 2166ft 0kts
03-Jan-21 18:17 36.081117 -115.170585 75 2166ft 0kts
03-Jan-21 18:18 36.081117 -115.170585 75 2166ft 0kts
03-Jan-21 18:19 36.081117 -115.170585 75 2166ft 0kts
03-Jan-21 18:20 36.081117 -115.170585 75 2166ft 0kts
03-Jan-21 18:21 36.081117 -115.170585 75 2166ft 0kts
03-Jan-21 18:22 36.081117 -115.170585 75 2166ft 0kts
03-Jan-21 18:23 36.081117 -115.170585 75 2166ft 0kts

Navigation Log

Ident Type
Flight plan parsing failed, navigation log unavailable